Aérodrome :
LOGIN :

S'inscrire | Disclaimer

   EN    FR    IT 

 










Légende :    VFR   VFR Marginal   IFR   IFR Intensif   IFR Très Intensif
Visi : 
Plafond : 
>= 8 km
>= 3000ft
5 à 8 km
1000 à 3000 ft
1500m à 5 km
500 à 1000 ft
800 à 1500m
200 à 500 ft
< 800m
< 200 ft
Symboles :   Orages  Brouillard  Fortes neiges  Fortes précipitations  Vent > 20 kt
SIGMETs :   Divers  Orages  Givrage  Turbulence  Onde Orograph.  Cendres Volcan.






- Altitude de l'aérodrome : 1416 ft
- Code IATA : ZRH


LSZH - Zurich

DERNIER METAR :
  • 221420Z VRB02KT 9999 FEW035 BKN070 05/M04 Q1033 NOSIG

METARs EXPIRÉS :
  • 221350Z VRB02KT 9999 SCT045 BKN070 04/M03 Q1033 NOSIG
  • 221320Z VRB03KT 9999 FEW040 SCT045 04/M03 Q1033 NOSIG
  • 221250Z VRB01KT 9999 FEW040 SCT042 04/M04 Q1033 NOSIG
  • 221220Z VRB01KT 9999 FEW042 SCT045 04/M05 Q1034 NOSIG
  • 221150Z VRB02KT 9999 FEW040 BKN048 03/M04 Q1034 NOSIG

TAF TAF LSZH
Valide du 22 à 15h jusqu'au 23 à 21h UTC


221425Z 2215/2321 VRB02KT 9999 FEW040 BKN070 TX04/2215Z TNM01/2306Z TX05/2314Z
PROB30 2300/2306 BKN012
BECMG 2308/2311 05008KT
BECMG 2316/2319 06004KT
ATIS : +41 43 816 2295 (DEP) +41 43 816 2294 (ARR)



MET'MAP, la Météo Aéronautique d'un coup d'oeil ! - Copyright ORBIFLY Décembre 2007 - Disclaimer

ORBIFLY MET'MAP TEAM :

Programmation & Développement : Alexandra Zaïnal
Sur une idée originale de : Baudouin d'Aumeries
Assistance à la programmation : Marc-Olivier Méhu
Soutien technique & logistique : Manuel Goepfert

Contact : metmap@orbifly.com




SOURCES & CREDITS :

   NOAA